Aeroporto :







RITROVATECI SU...

 
LOGIN :

Iscrizione | Disclaimer

   EN    FR    IT 

 









Sommario :    VFR   VFR Marginale   IFR   IFR Intensivo   IFR Molto Intensivo
Visibilità : 
Base nubi : 
>= 8 km
>= 3000ft
5 / 8 km
1000 / 3000 ft
1500m / 5 km
500 / 1000 ft
800 / 1500m
200 / 500 ft
< 800m
< 200 ft
Simboli :   Temporali  Nebbia  Neve Forte  Precipitazioni Forti  Vento > 20 kt






- Altitudine del aeroporto : 76 ft
- Codice IATA : EGS


BIEG - Egilsstaðir

ULTIMO METAR :
  • 062000Z 32006KT 9999 -SHSN SCT025 BKN035 OVC050 M02/M05 Q1000 RMK WIND GAGNHEIDI 32016KT

METARs OBSOLETI :
  • 061900Z 31011KT 9999 VCSH SCT035 BKN050 OVC070 M02/M06 Q0999 R04/CLRD// RMK WIND GAGNHEIDI 33017KT
  • 061800Z 32008KT 9999 VCSH SCT035 BKN050 OVC070 M02/M06 Q0999 R04/710195 RMK WIND GAGNHEIDI 32016KT

TAF TAF BIEG
Valido dal 06 a 18 ore il 07 a 18 ore UTC


061606Z 0618/0718 33006KT 9999 FEW030 SCT045 TXM02/0618Z TNM09/0715Z
PROB40
TEMPO 0618/0621 5000 SHSN SCT012 BKN025



MetMap, La meteo Aeronautica in un colpo d'occhio ! - Copyright ORBIFLY Dicembre 2007 - Disclaimer

ORBIFLY MET'MAP TEAM :

Programmazione e sviluppo : Alexandra Zaïnal
Concezione : Baudouin d'Aumeries
Aiuto per la programmazione : Marc-Olivier Méhu
Supporto tecnico e logistico : Manuel Goepfert
Aiuto per la traduzione : Arnaldo La Scala

Contatto : metmap@orbifly.com




FONTI E CREDITI :

   NOAA